sensor_id;sensor_type;location;lat;lon;timestamp;temperature;humidity
15099;DHT22;33900;53.640;9.942;2023-07-30T00:02:20;19.80;94.60
15099;DHT22;33900;53.640;9.942;2023-07-30T00:04:45;19.80;94.60
15099;DHT22;33900;53.640;9.942;2023-07-30T00:07:11;19.80;94.60
15099;DHT22;33900;53.640;9.942;2023-07-30T00:09:37;19.80;94.60
15099;DHT22;33900;53.640;9.942;2023-07-30T00:12:03;19.80;94.70
15099;DHT22;33900;53.640;9.942;2023-07-30T00:14:29;19.80;94.60
15099;DHT22;33900;53.640;9.942;2023-07-30T00:16:55;19.80;94.70
15099;DHT22;33900;53.640;9.942;2023-07-30T00:19:21;19.80;94.70
15099;DHT22;33900;53.640;9.942;2023-07-30T00:21:47;19.80;94.70
15099;DHT22;33900;53.640;9.942;2023-07-30T00:24:13;19.80;94.70
15099;DHT22;33900;53.640;9.942;2023-07-30T00:26:38;19.80;94.70
15099;DHT22;33900;53.640;9.942;2023-07-30T00:29:04;19.80;94.70
15099;DHT22;33900;53.640;9.942;2023-07-30T00:31:30;19.80;94.70
15099;DHT22;33900;53.640;9.942;2023-07-30T00:33:56;19.80;94.70
15099;DHT22;33900;53.640;9.942;2023-07-30T00:36:21;19.80;94.70
15099;DHT22;33900;53.640;9.942;2023-07-30T00:38:47;19.90;94.70
15099;DHT22;33900;53.640;9.942;2023-07-30T00:41:12;19.80;94.70
15099;DHT22;33900;53.640;9.942;2023-07-30T00:43:38;19.80;94.70
15099;DHT22;33900;53.640;9.942;2023-07-30T00:46:03;19.80;94.70
15099;DHT22;33900;53.640;9.942;2023-07-30T00:48:30;19.80;94.70
15099;DHT22;33900;53.640;9.942;2023-07-30T00:50:57;19.80;94.70
15099;DHT22;33900;53.640;9.942;2023-07-30T00:53:23;19.80;94.70
15099;DHT22;33900;53.640;9.942;2023-07-30T00:55:50;19.80;94.70
15099;DHT22;33900;53.640;9.942;2023-07-30T00:58:15;19.80;94.70
15099;DHT22;33900;53.640;9.942;2023-07-30T01:00:42;19.80;94.70
15099;DHT22;33900;53.640;9.942;2023-07-30T01:03:07;19.80;94.70
15099;DHT22;33900;53.640;9.942;2023-07-30T01:05:33;19.80;94.70
15099;DHT22;33900;53.640;9.942;2023-07-30T01:07:59;19.80;94.80
15099;DHT22;33900;53.640;9.942;2023-07-30T01:10:24;19.80;94.80
15099;DHT22;33900;53.640;9.942;2023-07-30T01:12:51;19.80;94.80
15099;DHT22;33900;53.640;9.942;2023-07-30T01:15:17;19.80;94.80
15099;DHT22;33900;53.640;9.942;2023-07-30T01:17:42;19.80;94.80
15099;DHT22;33900;53.640;9.942;2023-07-30T01:20:08;19.80;94.80
15099;DHT22;33900;53.640;9.942;2023-07-30T01:22:35;19.70;94.80
15099;DHT22;33900;53.640;9.942;2023-07-30T01:25:01;19.70;94.80
15099;DHT22;33900;53.640;9.942;2023-07-30T01:27:30;19.70;94.80
15099;DHT22;33900;53.640;9.942;2023-07-30T01:32:25;19.70;94.80
15099;DHT22;33900;53.640;9.942;2023-07-30T01:34:56;19.60;94.70
15099;DHT22;33900;53.640;9.942;2023-07-30T01:37:23;19.60;94.80
15099;DHT22;33900;53.640;9.942;2023-07-30T01:39:48;19.60;94.80
15099;DHT22;33900;53.640;9.942;2023-07-30T01:42:15;19.60;94.80
15099;DHT22;33900;53.640;9.942;2023-07-30T01:44:40;19.60;94.80
15099;DHT22;33900;53.640;9.942;2023-07-30T01:47:06;19.60;94.80
15099;DHT22;33900;53.640;9.942;2023-07-30T01:49:32;19.50;94.80
15099;DHT22;33900;53.640;9.942;2023-07-30T01:51:57;19.50;94.80
15099;DHT22;33900;53.640;9.942;2023-07-30T01:54:23;19.50;94.80
15099;DHT22;33900;53.640;9.942;2023-07-30T01:56:49;19.50;94.80
15099;DHT22;33900;53.640;9.942;2023-07-30T01:59:14;19.50;94.90
15099;DHT22;33900;53.640;9.942;2023-07-30T08:34:30;19.00;98.00
15099;DHT22;33900;53.640;9.942;2023-07-30T08:36:55;19.20;98.70
15099;DHT22;33900;53.640;9.942;2023-07-30T08:39:21;19.40;98.90
15099;DHT22;33900;53.640;9.942;2023-07-30T08:41:46;19.60;98.90
15099;DHT22;33900;53.640;9.942;2023-07-30T08:44:12;19.90;98.80
15099;DHT22;33900;53.640;9.942;2023-07-30T08:46:38;20.10;98.70
15099;DHT22;33900;53.640;9.942;2023-07-30T08:49:03;20.20;98.50
15099;DHT22;33900;53.640;9.942;2023-07-30T08:51:29;20.40;98.40
15099;DHT22;33900;53.640;9.942;2023-07-30T08:53:56;20.70;98.50
15099;DHT22;33900;53.640;9.942;2023-07-30T08:56:22;20.90;98.40
15099;DHT22;33900;53.640;9.942;2023-07-30T08:58:48;21.00;98.00
15099;DHT22;33900;53.640;9.942;2023-07-30T09:01:16;21.10;97.50
15099;DHT22;33900;53.640;9.942;2023-07-30T09:03:43;21.20;97.30
15099;DHT22;33900;53.640;9.942;2023-07-30T09:06:09;21.20;97.00
15099;DHT22;33900;53.640;9.942;2023-07-30T09:08:34;21.30;96.70
15099;DHT22;33900;53.640;9.942;2023-07-30T09:11:10;21.30;96.50
15099;DHT22;33900;53.640;9.942;2023-07-30T09:13:36;21.40;96.40
15099;DHT22;33900;53.640;9.942;2023-07-30T09:16:07;21.40;96.20
15099;DHT22;33900;53.640;9.942;2023-07-30T09:18:38;21.50;96.20
15099;DHT22;33900;53.640;9.942;2023-07-30T09:21:04;21.50;96.00
15099;DHT22;33900;53.640;9.942;2023-07-30T09:23:29;21.50;96.00
15099;DHT22;33900;53.640;9.942;2023-07-30T09:25:57;21.60;95.90
15099;DHT22;33900;53.640;9.942;2023-07-30T09:28:27;21.60;95.40
15099;DHT22;33900;53.640;9.942;2023-07-30T09:31:05;21.60;95.00
15099;DHT22;33900;53.640;9.942;2023-07-30T09:33:31;21.50;94.90
15099;DHT22;33900;53.640;9.942;2023-07-30T09:35:58;21.60;94.90
15099;DHT22;33900;53.640;9.942;2023-07-30T09:38:23;21.60;94.80
15099;DHT22;33900;53.640;9.942;2023-07-30T09:40:51;21.60;94.50
15099;DHT22;33900;53.640;9.942;2023-07-30T09:43:17;21.60;94.40
15099;DHT22;33900;53.640;9.942;2023-07-30T09:45:44;21.50;93.90
15099;DHT22;33900;53.640;9.942;2023-07-30T09:48:10;21.50;93.90
15099;DHT22;33900;53.640;9.942;2023-07-30T09:50:38;21.40;93.70
15099;DHT22;33900;53.640;9.942;2023-07-30T09:53:04;21.40;93.70
15099;DHT22;33900;53.640;9.942;2023-07-30T09:55:30;21.40;93.90
15099;DHT22;33900;53.640;9.942;2023-07-30T09:57:56;21.30;93.90
15099;DHT22;33900;53.640;9.942;2023-07-30T10:00:22;21.30;93.70
15099;DHT22;33900;53.640;9.942;2023-07-30T10:02:48;21.30;93.70
15099;DHT22;33900;53.640;9.942;2023-07-30T10:05:15;21.30;93.70
15099;DHT22;33900;53.640;9.942;2023-07-30T10:07:41;21.30;93.60
15099;DHT22;33900;53.640;9.942;2023-07-30T10:10:08;21.30;93.70
15099;DHT22;33900;53.640;9.942;2023-07-30T10:12:34;21.30;93.60
15099;DHT22;33900;53.640;9.942;2023-07-30T10:15:01;21.30;93.60
15099;DHT22;33900;53.640;9.942;2023-07-30T10:17:27;21.40;93.60
15099;DHT22;33900;53.640;9.942;2023-07-30T10:19:54;21.40;93.50
15099;DHT22;33900;53.640;9.942;2023-07-30T10:22:20;21.40;93.50
15099;DHT22;33900;53.640;9.942;2023-07-30T10:24:56;21.50;93.60
15099;DHT22;33900;53.640;9.942;2023-07-30T10:27:23;21.50;93.50
15099;DHT22;33900;53.640;9.942;2023-07-30T10:29:49;21.50;93.50
15099;DHT22;33900;53.640;9.942;2023-07-30T10:32:14;21.50;93.50
15099;DHT22;33900;53.640;9.942;2023-07-30T10:34:46;21.60;93.50
15099;DHT22;33900;53.640;9.942;2023-07-30T10:37:19;21.60;93.50
15099;DHT22;33900;53.640;9.942;2023-07-30T10:39:47;21.50;93.10
15099;DHT22;33900;53.640;9.942;2023-07-30T10:42:13;21.50;92.70
15099;DHT22;33900;53.640;9.942;2023-07-30T10:44:40;21.50;92.80
15099;DHT22;33900;53.640;9.942;2023-07-30T10:47:08;21.50;92.80
15099;DHT22;33900;53.640;9.942;2023-07-30T10:49:38;21.50;92.80
15099;DHT22;33900;53.640;9.942;2023-07-30T10:52:04;21.50;92.70
15099;DHT22;33900;53.640;9.942;2023-07-30T10:54:33;21.50;92.80
15099;DHT22;33900;53.640;9.942;2023-07-30T10:56:58;21.50;92.90
15099;DHT22;33900;53.640;9.942;2023-07-30T10:59:24;21.50;92.80
15099;DHT22;33900;53.640;9.942;2023-07-30T11:01:50;21.60;92.60
15099;DHT22;33900;53.640;9.942;2023-07-30T11:04:18;21.60;92.40
15099;DHT22;33900;53.640;9.942;2023-07-30T11:06:47;21.60;92.30
15099;DHT22;33900;53.640;9.942;2023-07-30T11:09:20;21.60;92.00
15099;DHT22;33900;53.640;9.942;2023-07-30T11:11:46;21.60;91.90
15099;DHT22;33900;53.640;9.942;2023-07-30T11:14:15;21.50;91.80
15099;DHT22;33900;53.640;9.942;2023-07-30T11:16:48;21.50;91.80
15099;DHT22;33900;53.640;9.942;2023-07-30T11:19:14;21.50;91.60
15099;DHT22;33900;53.640;9.942;2023-07-30T11:21:46;21.60;91.60
15099;DHT22;33900;53.640;9.942;2023-07-30T11:24:12;21.60;91.70
15099;DHT22;33900;53.640;9.942;2023-07-30T11:26:37;21.60;91.80
15099;DHT22;33900;53.640;9.942;2023-07-30T11:29:16;21.60;91.80
15099;DHT22;33900;53.640;9.942;2023-07-30T11:31:45;21.70;91.80
15099;DHT22;33900;53.640;9.942;2023-07-30T11:34:11;21.70;91.60
15099;DHT22;33900;53.640;9.942;2023-07-30T11:36:37;21.80;91.70
15099;DHT22;33900;53.640;9.942;2023-07-30T11:39:03;21.80;91.20
15099;DHT22;33900;53.640;9.942;2023-07-30T11:41:28;21.90;91.00
15099;DHT22;33900;53.640;9.942;2023-07-30T11:43:54;21.90;90.50
15099;DHT22;33900;53.640;9.942;2023-07-30T11:46:20;21.90;90.50
15099;DHT22;33900;53.640;9.942;2023-07-30T11:48:48;22.00;91.00
15099;DHT22;33900;53.640;9.942;2023-07-30T11:51:21;22.00;90.60
15099;DHT22;33900;53.640;9.942;2023-07-30T11:53:48;22.10;90.70
15099;DHT22;33900;53.640;9.942;2023-07-30T11:56:16;22.10;90.40
15099;DHT22;33900;53.640;9.942;2023-07-30T11:58:41;22.20;90.30
15099;DHT22;33900;53.640;9.942;2023-07-30T12:01:07;22.20;90.10
15099;DHT22;33900;53.640;9.942;2023-07-30T12:03:32;22.30;90.50
15099;DHT22;33900;53.640;9.942;2023-07-30T12:05:58;22.40;90.40
15099;DHT22;33900;53.640;9.942;2023-07-30T12:08:25;22.40;90.20
15099;DHT22;33900;53.640;9.942;2023-07-30T12:10:51;22.40;90.20
15099;DHT22;33900;53.640;9.942;2023-07-30T12:13:18;22.50;90.30
15099;DHT22;33900;53.640;9.942;2023-07-30T12:15:53;22.50;90.30
15099;DHT22;33900;53.640;9.942;2023-07-30T12:18:19;22.70;90.40
15099;DHT22;33900;53.640;9.942;2023-07-30T12:20:45;22.80;90.20
15099;DHT22;33900;53.640;9.942;2023-07-30T12:23:11;22.80;90.20
15099;DHT22;33900;53.640;9.942;2023-07-30T12:25:36;22.90;90.20
15099;DHT22;33900;53.640;9.942;2023-07-30T12:28:02;23.00;90.20
15099;DHT22;33900;53.640;9.942;2023-07-30T12:30:28;23.10;90.20
15099;DHT22;33900;53.640;9.942;2023-07-30T12:32:54;23.20;90.10
15099;DHT22;33900;53.640;9.942;2023-07-30T12:35:20;23.20;88.90
15099;DHT22;33900;53.640;9.942;2023-07-30T12:37:45;23.20;88.20
15099;DHT22;33900;53.640;9.942;2023-07-30T12:40:11;23.20;87.60
15099;DHT22;33900;53.640;9.942;2023-07-30T12:42:37;23.20;88.20
15099;DHT22;33900;53.640;9.942;2023-07-30T12:45:02;23.10;88.10
15099;DHT22;33900;53.640;9.942;2023-07-30T12:47:28;23.10;87.00
15099;DHT22;33900;53.640;9.942;2023-07-30T12:49:53;23.00;85.90
15099;DHT22;33900;53.640;9.942;2023-07-30T12:52:19;23.00;86.10
15099;DHT22;33900;53.640;9.942;2023-07-30T12:54:44;23.00;86.80
15099;DHT22;33900;53.640;9.942;2023-07-30T12:57:10;23.00;86.80
15099;DHT22;33900;53.640;9.942;2023-07-30T12:59:35;23.00;86.00
15099;DHT22;33900;53.640;9.942;2023-07-30T13:02:01;22.90;86.40
15099;DHT22;33900;53.640;9.942;2023-07-30T13:04:27;22.90;86.30
15099;DHT22;33900;53.640;9.942;2023-07-30T13:06:53;22.80;86.40
15099;DHT22;33900;53.640;9.942;2023-07-30T13:09:19;22.70;86.30
15099;DHT22;33900;53.640;9.942;2023-07-30T13:11:44;22.70;85.70
15099;DHT22;33900;53.640;9.942;2023-07-30T13:14:10;22.60;85.20
15099;DHT22;33900;53.640;9.942;2023-07-30T13:16:35;22.50;84.90
15099;DHT22;33900;53.640;9.942;2023-07-30T13:19:01;22.30;85.00
15099;DHT22;33900;53.640;9.942;2023-07-30T13:21:26;21.90;84.90
15099;DHT22;33900;53.640;9.942;2023-07-30T13:23:52;21.70;86.20
15099;DHT22;33900;53.640;9.942;2023-07-30T13:26:17;21.40;87.20
15099;DHT22;33900;53.640;9.942;2023-07-30T13:28:44;21.10;87.80
15099;DHT22;33900;53.640;9.942;2023-07-30T13:31:10;20.90;88.60
15099;DHT22;33900;53.640;9.942;2023-07-30T13:33:36;20.70;89.10
15099;DHT22;33900;53.640;9.942;2023-07-30T13:36:01;20.50;89.80
15099;DHT22;33900;53.640;9.942;2023-07-30T13:38:27;20.40;90.10
15099;DHT22;33900;53.640;9.942;2023-07-30T13:40:53;20.20;90.30
15099;DHT22;33900;53.640;9.942;2023-07-30T13:43:18;20.10;90.50
15099;DHT22;33900;53.640;9.942;2023-07-30T13:45:44;20.00;90.60
15099;DHT22;33900;53.640;9.942;2023-07-30T13:48:10;19.90;90.70
15099;DHT22;33900;53.640;9.942;2023-07-30T13:50:35;19.80;91.00
15099;DHT22;33900;53.640;9.942;2023-07-30T13:53:01;19.80;91.10
15099;DHT22;33900;53.640;9.942;2023-07-30T13:55:26;19.70;91.30
15099;DHT22;33900;53.640;9.942;2023-07-30T13:57:52;19.70;91.40
15099;DHT22;33900;53.640;9.942;2023-07-30T14:00:17;19.70;91.60
15099;DHT22;33900;53.640;9.942;2023-07-30T14:02:43;19.70;91.70
15099;DHT22;33900;53.640;9.942;2023-07-30T14:05:09;19.70;91.90
15099;DHT22;33900;53.640;9.942;2023-07-30T14:07:34;19.60;92.00
15099;DHT22;33900;53.640;9.942;2023-07-30T14:10:00;19.70;92.10
15099;DHT22;33900;53.640;9.942;2023-07-30T14:12:26;19.60;92.10
15099;DHT22;33900;53.640;9.942;2023-07-30T14:14:51;19.60;92.20
15099;DHT22;33900;53.640;9.942;2023-07-30T14:17:17;19.70;92.30
15099;DHT22;33900;53.640;9.942;2023-07-30T14:19:42;19.70;92.40
15099;DHT22;33900;53.640;9.942;2023-07-30T14:22:08;19.80;92.50
15099;DHT22;33900;53.640;9.942;2023-07-30T14:24:33;19.80;92.60
15099;DHT22;33900;53.640;9.942;2023-07-30T14:27:00;19.90;92.70
15099;DHT22;33900;53.640;9.942;2023-07-30T14:29:26;20.00;92.70
15099;DHT22;33900;53.640;9.942;2023-07-30T14:31:51;20.10;92.90
15099;DHT22;33900;53.640;9.942;2023-07-30T14:34:17;20.20;93.30
15099;DHT22;33900;53.640;9.942;2023-07-30T14:36:42;20.30;92.90
15099;DHT22;33900;53.640;9.942;2023-07-30T14:39:08;20.30;92.90
15099;DHT22;33900;53.640;9.942;2023-07-30T14:41:33;20.40;92.80
15099;DHT22;33900;53.640;9.942;2023-07-30T14:43:59;20.50;92.90
15099;DHT22;33900;53.640;9.942;2023-07-30T14:46:25;20.50;92.80
15099;DHT22;33900;53.640;9.942;2023-07-30T14:48:50;20.60;92.90
15099;DHT22;33900;53.640;9.942;2023-07-30T14:51:16;20.70;92.90
15099;DHT22;33900;53.640;9.942;2023-07-30T14:53:42;20.80;92.90
15099;DHT22;33900;53.640;9.942;2023-07-30T14:56:08;20.80;92.90
15099;DHT22;33900;53.640;9.942;2023-07-30T14:58:34;20.90;93.20
15099;DHT22;33900;53.640;9.942;2023-07-30T15:01:00;21.00;92.80
15099;DHT22;33900;53.640;9.942;2023-07-30T15:03:25;21.00;92.80
15099;DHT22;33900;53.640;9.942;2023-07-30T15:05:51;21.10;92.80
15099;DHT22;33900;53.640;9.942;2023-07-30T15:08:16;21.10;92.70
15099;DHT22;33900;53.640;9.942;2023-07-30T15:10:42;21.10;92.60
15099;DHT22;33900;53.640;9.942;2023-07-30T15:13:07;21.20;92.60
15099;DHT22;33900;53.640;9.942;2023-07-30T15:15:33;21.20;92.60
15099;DHT22;33900;53.640;9.942;2023-07-30T15:17:59;21.10;92.60
15099;DHT22;33900;53.640;9.942;2023-07-30T15:20:24;21.10;92.50
15099;DHT22;33900;53.640;9.942;2023-07-30T15:22:50;21.10;92.50
15099;DHT22;33900;53.640;9.942;2023-07-30T15:25:16;21.00;92.40
15099;DHT22;33900;53.640;9.942;2023-07-30T15:27:42;21.00;92.30
15099;DHT22;33900;53.640;9.942;2023-07-30T15:30:07;20.90;92.30
15099;DHT22;33900;53.640;9.942;2023-07-30T15:32:40;20.90;92.40
15099;DHT22;33900;53.640;9.942;2023-07-30T15:35:06;20.90;92.40
15099;DHT22;33900;53.640;9.942;2023-07-30T15:37:31;20.80;92.40
15099;DHT22;33900;53.640;9.942;2023-07-30T15:39:57;20.80;92.40
15099;DHT22;33900;53.640;9.942;2023-07-30T15:42:23;20.80;92.70
15099;DHT22;33900;53.640;9.942;2023-07-30T15:44:48;20.80;92.50
15099;DHT22;33900;53.640;9.942;2023-07-30T15:47:14;20.70;92.50
15099;DHT22;33900;53.640;9.942;2023-07-30T15:49:39;20.80;92.50
15099;DHT22;33900;53.640;9.942;2023-07-30T15:52:05;20.70;92.50
15099;DHT22;33900;53.640;9.942;2023-07-30T15:54:31;20.70;92.60
15099;DHT22;33900;53.640;9.942;2023-07-30T15:56:57;20.70;92.60
15099;DHT22;33900;53.640;9.942;2023-07-30T15:59:22;20.70;92.70
15099;DHT22;33900;53.640;9.942;2023-07-30T16:01:50;20.70;92.70
15099;DHT22;33900;53.640;9.942;2023-07-30T16:04:16;20.60;92.70
15099;DHT22;33900;53.640;9.942;2023-07-30T16:06:41;20.70;92.80
15099;DHT22;33900;53.640;9.942;2023-07-30T16:09:07;20.70;92.80
15099;DHT22;33900;53.640;9.942;2023-07-30T16:11:32;20.70;92.80
15099;DHT22;33900;53.640;9.942;2023-07-30T16:13:58;20.70;92.90
15099;DHT22;33900;53.640;9.942;2023-07-30T16:16:24;20.70;92.90
15099;DHT22;33900;53.640;9.942;2023-07-30T16:18:50;20.70;92.90
15099;DHT22;33900;53.640;9.942;2023-07-30T16:21:16;20.70;92.90
15099;DHT22;33900;53.640;9.942;2023-07-30T16:23:42;20.70;92.90
15099;DHT22;33900;53.640;9.942;2023-07-30T16:26:08;20.70;92.90
15099;DHT22;33900;53.640;9.942;2023-07-30T16:28:34;20.70;92.90
15099;DHT22;33900;53.640;9.942;2023-07-30T16:30:59;20.70;92.90
15099;DHT22;33900;53.640;9.942;2023-07-30T16:33:25;20.70;92.90
15099;DHT22;33900;53.640;9.942;2023-07-30T16:35:51;20.70;92.90
15099;DHT22;33900;53.640;9.942;2023-07-30T16:38:17;20.70;92.80
15099;DHT22;33900;53.640;9.942;2023-07-30T16:40:43;20.70;92.80
15099;DHT22;33900;53.640;9.942;2023-07-30T16:43:09;20.70;92.80
15099;DHT22;33900;53.640;9.942;2023-07-30T16:45:34;20.70;92.80
15099;DHT22;33900;53.640;9.942;2023-07-30T16:48:00;20.60;92.80
15099;DHT22;33900;53.640;9.942;2023-07-30T16:50:26;20.70;92.80
15099;DHT22;33900;53.640;9.942;2023-07-30T16:52:51;20.60;92.70
15099;DHT22;33900;53.640;9.942;2023-07-30T16:55:17;20.70;92.60
15099;DHT22;33900;53.640;9.942;2023-07-30T16:57:42;20.70;92.50
15099;DHT22;33900;53.640;9.942;2023-07-30T17:00:08;20.60;92.50
15099;DHT22;33900;53.640;9.942;2023-07-30T17:02:34;20.60;92.50
15099;DHT22;33900;53.640;9.942;2023-07-30T17:04:59;20.60;92.50
15099;DHT22;33900;53.640;9.942;2023-07-30T17:07:25;20.60;92.50
15099;DHT22;33900;53.640;9.942;2023-07-30T17:09:50;20.60;92.60
15099;DHT22;33900;53.640;9.942;2023-07-30T17:12:16;20.50;92.60
15099;DHT22;33900;53.640;9.942;2023-07-30T17:14:42;20.50;92.60
15099;DHT22;33900;53.640;9.942;2023-07-30T17:17:07;20.50;92.60
15099;DHT22;33900;53.640;9.942;2023-07-30T17:19:33;20.40;92.60
15099;DHT22;33900;53.640;9.942;2023-07-30T17:21:59;20.40;92.50
15099;DHT22;33900;53.640;9.942;2023-07-30T17:24:24;20.40;92.50
15099;DHT22;33900;53.640;9.942;2023-07-30T17:26:50;20.40;92.50
15099;DHT22;33900;53.640;9.942;2023-07-30T17:29:16;20.30;92.50
15099;DHT22;33900;53.640;9.942;2023-07-30T17:31:41;20.30;92.50
15099;DHT22;33900;53.640;9.942;2023-07-30T17:34:07;20.30;92.50
15099;DHT22;33900;53.640;9.942;2023-07-30T17:36:33;20.30;92.50
15099;DHT22;33900;53.640;9.942;2023-07-30T17:39:03;20.30;92.50
15099;DHT22;33900;53.640;9.942;2023-07-30T17:41:29;20.30;92.60
15099;DHT22;33900;53.640;9.942;2023-07-30T17:43:54;20.30;92.60
15099;DHT22;33900;53.640;9.942;2023-07-30T17:46:20;20.30;92.60
15099;DHT22;33900;53.640;9.942;2023-07-30T17:48:46;20.20;92.60
15099;DHT22;33900;53.640;9.942;2023-07-30T17:51:13;20.20;92.60
15099;DHT22;33900;53.640;9.942;2023-07-30T17:53:39;20.20;92.60
15099;DHT22;33900;53.640;9.942;2023-07-30T17:56:05;20.10;92.70
15099;DHT22;33900;53.640;9.942;2023-07-30T17:58:30;20.10;92.70
15099;DHT22;33900;53.640;9.942;2023-07-30T18:00:56;20.10;92.80
15099;DHT22;33900;53.640;9.942;2023-07-30T18:03:29;20.00;92.90
15099;DHT22;33900;53.640;9.942;2023-07-30T18:05:55;19.90;92.90
15099;DHT22;33900;53.640;9.942;2023-07-30T18:08:20;19.90;93.00
15099;DHT22;33900;53.640;9.942;2023-07-30T18:10:46;19.70;92.90
15099;DHT22;33900;53.640;9.942;2023-07-30T18:13:15;19.60;92.90
15099;DHT22;33900;53.640;9.942;2023-07-30T18:15:41;19.50;92.90
15099;DHT22;33900;53.640;9.942;2023-07-30T18:18:06;19.50;93.00
15099;DHT22;33900;53.640;9.942;2023-07-30T18:20:32;19.40;93.10
15099;DHT22;33900;53.640;9.942;2023-07-30T18:22:59;19.30;93.20
15099;DHT22;33900;53.640;9.942;2023-07-30T18:25:24;19.20;93.20
15099;DHT22;33900;53.640;9.942;2023-07-30T18:27:50;19.20;93.30
15099;DHT22;33900;53.640;9.942;2023-07-30T18:30:15;19.20;93.40
15099;DHT22;33900;53.640;9.942;2023-07-30T18:32:41;19.10;93.40
15099;DHT22;33900;53.640;9.942;2023-07-30T18:35:06;19.10;93.50
15099;DHT22;33900;53.640;9.942;2023-07-30T18:37:32;19.10;93.50
15099;DHT22;33900;53.640;9.942;2023-07-30T18:39:58;19.10;93.60
15099;DHT22;33900;53.640;9.942;2023-07-30T18:42:25;19.00;93.60
15099;DHT22;33900;53.640;9.942;2023-07-30T18:44:54;19.00;93.70
15099;DHT22;33900;53.640;9.942;2023-07-30T18:47:20;19.00;93.70
15099;DHT22;33900;53.640;9.942;2023-07-30T18:49:45;18.90;93.70
15099;DHT22;33900;53.640;9.942;2023-07-30T18:52:11;18.90;93.70
15099;DHT22;33900;53.640;9.942;2023-07-30T18:54:36;18.90;93.70
15099;DHT22;33900;53.640;9.942;2023-07-30T18:57:02;18.80;93.70
15099;DHT22;33900;53.640;9.942;2023-07-30T18:59:28;18.80;93.70
15099;DHT22;33900;53.640;9.942;2023-07-30T19:01:53;18.70;93.70
15099;DHT22;33900;53.640;9.942;2023-07-30T19:04:19;18.70;93.70
15099;DHT22;33900;53.640;9.942;2023-07-30T19:06:44;18.70;93.80
15099;DHT22;33900;53.640;9.942;2023-07-30T19:09:10;18.60;93.70
15099;DHT22;33900;53.640;9.942;2023-07-30T19:11:35;18.60;93.70
15099;DHT22;33900;53.640;9.942;2023-07-30T19:14:01;18.60;93.70
15099;DHT22;33900;53.640;9.942;2023-07-30T19:16:27;18.60;93.80
15099;DHT22;33900;53.640;9.942;2023-07-30T19:18:52;18.60;93.70
15099;DHT22;33900;53.640;9.942;2023-07-30T19:21:18;18.60;93.80
15099;DHT22;33900;53.640;9.942;2023-07-30T19:23:43;18.50;93.70
15099;DHT22;33900;53.640;9.942;2023-07-30T19:26:09;18.50;93.80
15099;DHT22;33900;53.640;9.942;2023-07-30T19:28:34;18.50;93.80
15099;DHT22;33900;53.640;9.942;2023-07-30T19:31:04;18.50;93.80
15099;DHT22;33900;53.640;9.942;2023-07-30T19:33:29;18.50;93.90
15099;DHT22;33900;53.640;9.942;2023-07-30T19:35:55;18.50;93.90
15099;DHT22;33900;53.640;9.942;2023-07-30T19:38:20;18.50;93.90
15099;DHT22;33900;53.640;9.942;2023-07-30T19:40:46;18.50;93.90
15099;DHT22;33900;53.640;9.942;2023-07-30T19:43:16;18.40;93.90
15099;DHT22;33900;53.640;9.942;2023-07-30T19:45:45;18.40;93.90
15099;DHT22;33900;53.640;9.942;2023-07-30T19:48:11;18.40;93.90
15099;DHT22;33900;53.640;9.942;2023-07-30T19:50:37;18.40;94.00
15099;DHT22;33900;53.640;9.942;2023-07-30T19:53:02;18.40;94.10
15099;DHT22;33900;53.640;9.942;2023-07-30T19:55:28;18.40;94.10
15099;DHT22;33900;53.640;9.942;2023-07-30T19:57:55;18.40;94.10
15099;DHT22;33900;53.640;9.942;2023-07-30T20:00:21;18.40;94.10
15099;DHT22;33900;53.640;9.942;2023-07-30T20:02:46;18.40;94.20
15099;DHT22;33900;53.640;9.942;2023-07-30T20:05:12;18.40;94.20
15099;DHT22;33900;53.640;9.942;2023-07-30T20:07:41;18.30;94.20
15099;DHT22;33900;53.640;9.942;2023-07-30T20:10:07;18.30;94.20
15099;DHT22;33900;53.640;9.942;2023-07-30T20:12:32;18.30;94.30
15099;DHT22;33900;53.640;9.942;2023-07-30T20:14:58;18.40;94.30
15099;DHT22;33900;53.640;9.942;2023-07-30T20:17:23;18.40;94.30
15099;DHT22;33900;53.640;9.942;2023-07-30T20:19:49;18.40;94.40
15099;DHT22;33900;53.640;9.942;2023-07-30T20:22:14;18.40;94.40
15099;DHT22;33900;53.640;9.942;2023-07-30T20:24:40;18.40;94.40
15099;DHT22;33900;53.640;9.942;2023-07-30T20:27:05;18.40;94.40
15099;DHT22;33900;53.640;9.942;2023-07-30T20:29:31;18.30;94.40
15099;DHT22;33900;53.640;9.942;2023-07-30T20:31:57;18.40;94.40
15099;DHT22;33900;53.640;9.942;2023-07-30T20:34:24;18.40;94.50
15099;DHT22;33900;53.640;9.942;2023-07-30T20:36:49;18.30;94.50
15099;DHT22;33900;53.640;9.942;2023-07-30T20:39:15;18.30;94.50
15099;DHT22;33900;53.640;9.942;2023-07-30T20:41:41;18.40;94.60
15099;DHT22;33900;53.640;9.942;2023-07-30T20:44:06;18.20;94.80
15099;DHT22;33900;53.640;9.942;2023-07-30T20:46:33;18.30;94.50
15099;DHT22;33900;53.640;9.942;2023-07-30T20:48:59;18.30;94.50
15099;DHT22;33900;53.640;9.942;2023-07-30T20:51:24;18.30;94.50
15099;DHT22;33900;53.640;9.942;2023-07-30T20:53:50;18.30;94.50
15099;DHT22;33900;53.640;9.942;2023-07-30T20:56:16;18.30;94.50
15099;DHT22;33900;53.640;9.942;2023-07-30T20:58:41;18.20;94.60
15099;DHT22;33900;53.640;9.942;2023-07-30T21:01:07;18.30;94.60
15099;DHT22;33900;53.640;9.942;2023-07-30T21:03:33;18.20;94.60
15099;DHT22;33900;53.640;9.942;2023-07-30T21:05:58;18.30;94.60
15099;DHT22;33900;53.640;9.942;2023-07-30T21:08:26;18.20;94.60
15099;DHT22;33900;53.640;9.942;2023-07-30T21:10:51;18.30;94.60
